sensor_id;sensor_type;location;lat;lon;timestamp;pressure;altitude;pressure_sealevel;temperature;humidity
61345;BME280;47216;42.656;23.232;2023-05-07T00:00:47;94120.00;;;10.93;68.33
61345;BME280;47216;42.656;23.232;2023-05-07T00:03:15;94119.75;;;10.95;68.84
61345;BME280;47216;42.656;23.232;2023-05-07T00:05:41;94119.69;;;10.90;68.46
61345;BME280;47216;42.656;23.232;2023-05-07T00:08:08;94113.09;;;10.82;69.25
61345;BME280;47216;42.656;23.232;2023-05-07T00:10:35;94114.31;;;10.75;69.11
61345;BME280;47216;42.656;23.232;2023-05-07T00:13:02;94114.31;;;10.75;69.13
61345;BME280;47216;42.656;23.232;2023-05-07T00:15:30;94118.09;;;10.67;68.89
61345;BME280;47216;42.656;23.232;2023-05-07T00:17:57;94112.75;;;10.57;69.41
61345;BME280;47216;42.656;23.232;2023-05-07T00:20:25;94103.25;;;10.28;69.65
61345;BME280;47216;42.656;23.232;2023-05-07T00:22:51;94115.44;;;10.28;70.60
61345;BME280;47216;42.656;23.232;2023-05-07T00:25:19;94113.81;;;10.22;70.74
61345;BME280;47216;42.656;23.232;2023-05-07T00:27:46;94108.59;;;10.22;70.87
61345;BME280;47216;42.656;23.232;2023-05-07T00:30:13;94108.81;;;10.20;70.67
61345;BME280;47216;42.656;23.232;2023-05-07T00:32:41;94108.34;;;10.23;70.94
61345;BME280;47216;42.656;23.232;2023-05-07T00:35:10;94110.41;;;10.21;70.69
61345;BME280;47216;42.656;23.232;2023-05-07T00:37:37;94110.41;;;10.21;71.01
61345;BME280;47216;42.656;23.232;2023-05-07T00:40:05;94106.69;;;10.17;71.24
61345;BME280;47216;42.656;23.232;2023-05-07T00:42:33;94107.88;;;10.09;71.45
61345;BME280;47216;42.656;23.232;2023-05-07T00:44:59;94115.16;;;10.07;71.08
61345;BME280;47216;42.656;23.232;2023-05-07T00:47:26;94116.94;;;10.07;71.49
61345;BME280;47216;42.656;23.232;2023-05-07T00:49:55;94120.66;;;10.11;71.25
61345;BME280;47216;42.656;23.232;2023-05-07T00:52:25;94115.22;;;10.13;71.14
61345;BME280;47216;42.656;23.232;2023-05-07T00:54:52;94114.50;;;10.17;71.07
61345;BME280;47216;42.656;23.232;2023-05-07T00:57:21;94117.34;;;10.16;71.01
61345;BME280;47216;42.656;23.232;2023-05-07T00:59:48;94107.09;;;10.09;71.20
61345;BME280;47216;42.656;23.232;2023-05-07T01:02:15;94112.22;;;10.21;71.00
61345;BME280;47216;42.656;23.232;2023-05-07T01:04:43;94117.50;;;10.26;71.25
61345;BME280;47216;42.656;23.232;2023-05-07T01:07:11;94117.84;;;10.29;70.51
61345;BME280;47216;42.656;23.232;2023-05-07T01:09:38;94126.03;;;10.21;70.68
61345;BME280;47216;42.656;23.232;2023-05-07T01:12:06;94119.25;;;10.20;69.94
61345;BME280;47216;42.656;23.232;2023-05-07T01:14:34;94118.94;;;10.17;70.08
61345;BME280;47216;42.656;23.232;2023-05-07T01:17:01;94112.69;;;10.18;70.63
61345;BME280;47216;42.656;23.232;2023-05-07T01:19:29;94124.59;;;10.14;70.83
61345;BME280;47216;42.656;23.232;2023-05-07T01:22:01;94117.75;;;10.07;71.14
61345;BME280;47216;42.656;23.232;2023-05-07T01:24:31;94114.03;;;10.03;71.14
61345;BME280;47216;42.656;23.232;2023-05-07T01:26:59;94114.03;;;10.03;70.85
61345;BME280;47216;42.656;23.232;2023-05-07T01:29:27;94122.09;;;10.02;70.85
61345;BME280;47216;42.656;23.232;2023-05-07T01:31:54;94109.75;;;9.97;70.46
61345;BME280;47216;42.656;23.232;2023-05-07T01:34:24;94120.41;;;9.96;70.86
61345;BME280;47216;42.656;23.232;2023-05-07T01:36:52;94126.25;;;9.86;71.40
61345;BME280;47216;42.656;23.232;2023-05-07T01:39:21;94120.50;;;9.84;71.35
61345;BME280;47216;42.656;23.232;2023-05-07T01:41:50;94117.31;;;9.82;70.76
61345;BME280;47216;42.656;23.232;2023-05-07T01:44:18;94110.06;;;9.84;71.07
61345;BME280;47216;42.656;23.232;2023-05-07T01:46:46;94102.41;;;9.77;71.27
61345;BME280;47216;42.656;23.232;2023-05-07T01:49:14;94108.50;;;9.66;71.68
61345;BME280;47216;42.656;23.232;2023-05-07T01:51:41;94100.63;;;9.49;71.93
61345;BME280;47216;42.656;23.232;2023-05-07T01:54:09;94106.22;;;9.41;72.49
61345;BME280;47216;42.656;23.232;2023-05-07T01:56:36;94101.22;;;9.22;72.66
61345;BME280;47216;42.656;23.232;2023-05-07T01:59:04;94101.69;;;9.08;73.70
61345;BME280;47216;42.656;23.232;2023-05-07T02:01:30;94092.38;;;8.95;74.88
61345;BME280;47216;42.656;23.232;2023-05-07T02:03:57;94095.06;;;9.00;74.50
61345;BME280;47216;42.656;23.232;2023-05-07T02:06:24;94088.78;;;8.84;74.45
61345;BME280;47216;42.656;23.232;2023-05-07T02:08:51;94070.69;;;8.77;75.07
61345;BME280;47216;42.656;23.232;2023-05-07T02:11:18;94075.47;;;8.80;75.23
61345;BME280;47216;42.656;23.232;2023-05-07T02:13:45;94079.03;;;8.91;74.73
61345;BME280;47216;42.656;23.232;2023-05-07T02:16:13;94077.34;;;8.97;76.05
61345;BME280;47216;42.656;23.232;2023-05-07T02:18:40;94074.91;;;9.07;74.79
61345;BME280;47216;42.656;23.232;2023-05-07T02:21:07;94079.63;;;9.22;74.22
61345;BME280;47216;42.656;23.232;2023-05-07T02:23:34;94077.09;;;9.27;72.98
61345;BME280;47216;42.656;23.232;2023-05-07T02:26:01;94084.56;;;9.23;73.17
61345;BME280;47216;42.656;23.232;2023-05-07T02:28:28;94080.91;;;9.08;74.03
61345;BME280;47216;42.656;23.232;2023-05-07T02:30:55;94086.09;;;9.08;74.08
61345;BME280;47216;42.656;23.232;2023-05-07T02:33:25;94082.72;;;9.07;72.92
61345;BME280;47216;42.656;23.232;2023-05-07T02:35:52;94087.13;;;9.07;74.61
61345;BME280;47216;42.656;23.232;2023-05-07T02:38:18;94078.13;;;8.97;74.80
61345;BME280;47216;42.656;23.232;2023-05-07T02:40:45;94081.88;;;8.90;73.75
61345;BME280;47216;42.656;23.232;2023-05-07T02:43:12;94076.91;;;8.88;74.46
61345;BME280;47216;42.656;23.232;2023-05-07T02:45:39;94091.25;;;8.91;75.62
61345;BME280;47216;42.656;23.232;2023-05-07T02:48:06;94088.09;;;8.89;74.51
61345;BME280;47216;42.656;23.232;2023-05-07T02:50:34;94091.38;;;8.84;75.42
61345;BME280;47216;42.656;23.232;2023-05-07T02:53:01;94086.06;;;8.79;75.20
61345;BME280;47216;42.656;23.232;2023-05-07T02:55:28;94080.31;;;8.77;75.29
61345;BME280;47216;42.656;23.232;2023-05-07T02:57:54;94088.78;;;8.84;75.70
61345;BME280;47216;42.656;23.232;2023-05-07T03:00:22;94091.81;;;8.93;75.38
61345;BME280;47216;42.656;23.232;2023-05-07T03:02:49;94101.19;;;8.94;75.15
61345;BME280;47216;42.656;23.232;2023-05-07T03:05:15;94078.59;;;8.94;75.39
61345;BME280;47216;42.656;23.232;2023-05-07T03:07:43;94097.75;;;9.05;74.75
61345;BME280;47216;42.656;23.232;2023-05-07T03:10:11;94093.81;;;9.02;74.22
61345;BME280;47216;42.656;23.232;2023-05-07T03:12:39;94095.41;;;9.03;74.65
61345;BME280;47216;42.656;23.232;2023-05-07T03:15:07;94106.34;;;9.17;73.72
61345;BME280;47216;42.656;23.232;2023-05-07T03:17:34;94099.53;;;9.16;73.53
61345;BME280;47216;42.656;23.232;2023-05-07T03:20:01;94105.84;;;9.20;73.09
61345;BME280;47216;42.656;23.232;2023-05-07T03:22:28;94108.59;;;9.14;73.42
61345;BME280;47216;42.656;23.232;2023-05-07T03:24:56;94107.50;;;8.98;74.21
61345;BME280;47216;42.656;23.232;2023-05-07T03:27:25;94101.59;;;8.74;74.02
61345;BME280;47216;42.656;23.232;2023-05-07T03:29:52;94109.41;;;8.62;74.63
61345;BME280;47216;42.656;23.232;2023-05-07T03:32:19;94105.56;;;8.53;74.50
61345;BME280;47216;42.656;23.232;2023-05-07T03:34:46;94103.53;;;8.43;75.31
61345;BME280;47216;42.656;23.232;2023-05-07T03:37:13;94099.34;;;8.30;76.12
61345;BME280;47216;42.656;23.232;2023-05-07T03:39:39;94115.72;;;8.43;76.75
61345;BME280;47216;42.656;23.232;2023-05-07T03:42:08;94129.19;;;8.51;77.14
61345;BME280;47216;42.656;23.232;2023-05-07T03:44:34;94122.25;;;8.57;76.34
61345;BME280;47216;42.656;23.232;2023-05-07T03:47:02;94121.38;;;8.63;76.16
61345;BME280;47216;42.656;23.232;2023-05-07T03:49:29;94115.50;;;8.56;75.94
61345;BME280;47216;42.656;23.232;2023-05-07T03:51:56;94121.94;;;8.53;75.58
61345;BME280;47216;42.656;23.232;2023-05-07T03:54:23;94120.94;;;8.43;76.31
61345;BME280;47216;42.656;23.232;2023-05-07T03:56:49;94124.19;;;8.38;76.46
61345;BME280;47216;42.656;23.232;2023-05-07T03:59:17;94123.50;;;8.31;77.19
61345;BME280;47216;42.656;23.232;2023-05-07T04:01:44;94130.72;;;8.29;76.53
61345;BME280;47216;42.656;23.232;2023-05-07T04:04:11;94133.00;;;8.37;76.55
61345;BME280;47216;42.656;23.232;2023-05-07T04:06:38;94133.34;;;8.40;77.29
61345;BME280;47216;42.656;23.232;2023-05-07T04:09:05;94132.56;;;8.40;77.62
61345;BME280;47216;42.656;23.232;2023-05-07T04:11:31;94138.13;;;8.44;76.43
61345;BME280;47216;42.656;23.232;2023-05-07T04:13:58;94136.97;;;8.51;76.71
61345;BME280;47216;42.656;23.232;2023-05-07T04:16:27;94156.63;;;8.71;76.95
61345;BME280;47216;42.656;23.232;2023-05-07T04:18:53;94156.16;;;8.86;76.11
61345;BME280;47216;42.656;23.232;2023-05-07T04:21:20;94167.66;;;9.01;76.10
61345;BME280;47216;42.656;23.232;2023-05-07T04:23:48;94158.25;;;9.12;76.22
61345;BME280;47216;42.656;23.232;2023-05-07T04:26:15;94161.25;;;9.33;75.37
61345;BME280;47216;42.656;23.232;2023-05-07T04:28:42;94169.38;;;9.36;75.05
61345;BME280;47216;42.656;23.232;2023-05-07T04:31:09;94169.69;;;9.40;74.30
61345;BME280;47216;42.656;23.232;2023-05-07T04:33:37;94171.16;;;9.48;74.20
61345;BME280;47216;42.656;23.232;2023-05-07T04:36:04;94169.91;;;9.50;74.57
61345;BME280;47216;42.656;23.232;2023-05-07T04:38:31;94175.16;;;9.67;73.41
61345;BME280;47216;42.656;23.232;2023-05-07T04:41:02;94166.09;;;9.70;74.07
61345;BME280;47216;42.656;23.232;2023-05-07T04:43:30;94180.50;;;9.89;73.54
61345;BME280;47216;42.656;23.232;2023-05-07T04:45:57;94176.66;;;10.08;73.19
61345;BME280;47216;42.656;23.232;2023-05-07T04:48:24;94176.00;;;10.18;72.61
61345;BME280;47216;42.656;23.232;2023-05-07T04:50:53;94173.91;;;10.32;72.08
61345;BME280;47216;42.656;23.232;2023-05-07T04:53:20;94173.13;;;10.48;72.20
61345;BME280;47216;42.656;23.232;2023-05-07T04:55:47;94162.69;;;10.65;71.82
61345;BME280;47216;42.656;23.232;2023-05-07T04:58:13;94166.38;;;10.86;71.51
61345;BME280;47216;42.656;23.232;2023-05-07T05:00:41;94158.66;;;10.97;71.35
61345;BME280;47216;42.656;23.232;2023-05-07T05:03:08;94170.91;;;11.18;71.31
61345;BME280;47216;42.656;23.232;2023-05-07T05:05:36;94165.94;;;11.39;70.98
61345;BME280;47216;42.656;23.232;2023-05-07T05:08:04;94160.00;;;11.43;71.42
61345;BME280;47216;42.656;23.232;2023-05-07T05:10:31;94152.09;;;11.60;70.91
61345;BME280;47216;42.656;23.232;2023-05-07T05:12:58;94166.41;;;11.85;70.48
61345;BME280;47216;42.656;23.232;2023-05-07T05:15:25;94164.78;;;12.01;70.04
61345;BME280;47216;42.656;23.232;2023-05-07T05:17:52;94169.34;;;12.15;69.78
61345;BME280;47216;42.656;23.232;2023-05-07T05:20:18;94167.06;;;12.24;69.46
61345;BME280;47216;42.656;23.232;2023-05-07T05:22:45;94160.63;;;12.37;69.05
61345;BME280;47216;42.656;23.232;2023-05-07T05:25:13;94170.69;;;12.50;69.18
61345;BME280;47216;42.656;23.232;2023-05-07T05:27:40;94157.59;;;12.50;68.86
61345;BME280;47216;42.656;23.232;2023-05-07T05:30:08;94165.28;;;12.67;68.97
61345;BME280;47216;42.656;23.232;2023-05-07T05:32:34;94161.59;;;12.63;68.98
61345;BME280;47216;42.656;23.232;2023-05-07T05:35:01;94162.50;;;12.84;68.94
61345;BME280;47216;42.656;23.232;2023-05-07T05:37:28;94162.53;;;12.89;68.79
61345;BME280;47216;42.656;23.232;2023-05-07T05:39:56;94170.97;;;12.96;68.31
61345;BME280;47216;42.656;23.232;2023-05-07T05:42:24;94161.09;;;13.14;67.67
61345;BME280;47216;42.656;23.232;2023-05-07T05:44:52;94165.31;;;13.20;67.96
61345;BME280;47216;42.656;23.232;2023-05-07T05:47:18;94158.00;;;13.27;68.26
61345;BME280;47216;42.656;23.232;2023-05-07T05:49:45;94162.53;;;13.37;67.59
61345;BME280;47216;42.656;23.232;2023-05-07T05:52:14;94162.06;;;13.65;69.40
61345;BME280;47216;42.656;23.232;2023-05-07T05:54:42;94152.94;;;13.88;68.75
61345;BME280;47216;42.656;23.232;2023-05-07T05:57:08;94160.84;;;14.04;66.97
61345;BME280;47216;42.656;23.232;2023-05-07T05:59:37;94170.03;;;14.17;66.70
61345;BME280;47216;42.656;23.232;2023-05-07T06:02:04;94173.44;;;14.22;66.03
61345;BME280;47216;42.656;23.232;2023-05-07T06:04:30;94163.47;;;14.29;65.49
61345;BME280;47216;42.656;23.232;2023-05-07T06:06:57;94171.88;;;14.32;65.32
61345;BME280;47216;42.656;23.232;2023-05-07T06:09:24;94173.97;;;14.19;65.52
61345;BME280;47216;42.656;23.232;2023-05-07T06:11:51;94165.06;;;14.31;65.85
61345;BME280;47216;42.656;23.232;2023-05-07T06:14:18;94158.50;;;14.43;65.78
61345;BME280;47216;42.656;23.232;2023-05-07T06:16:46;94160.38;;;14.58;64.86
61345;BME280;47216;42.656;23.232;2023-05-07T06:19:13;94166.13;;;14.70;65.11
61345;BME280;47216;42.656;23.232;2023-05-07T06:21:43;94164.00;;;14.62;64.49
61345;BME280;47216;42.656;23.232;2023-05-07T06:24:10;94164.53;;;14.75;64.48
61345;BME280;47216;42.656;23.232;2023-05-07T06:26:36;94158.22;;;14.91;63.58
61345;BME280;47216;42.656;23.232;2023-05-07T06:29:04;94154.25;;;14.83;64.18
61345;BME280;47216;42.656;23.232;2023-05-07T06:31:30;94145.09;;;14.91;64.67
61345;BME280;47216;42.656;23.232;2023-05-07T06:33:59;94148.44;;;15.12;64.25
61345;BME280;47216;42.656;23.232;2023-05-07T06:36:27;94146.13;;;14.85;64.37
61345;BME280;47216;42.656;23.232;2023-05-07T06:38:54;94148.19;;;15.03;64.19
61345;BME280;47216;42.656;23.232;2023-05-07T06:41:21;94146.53;;;15.28;63.13
61345;BME280;47216;42.656;23.232;2023-05-07T06:43:48;94148.94;;;15.19;64.35
61345;BME280;47216;42.656;23.232;2023-05-07T06:46:15;94144.44;;;15.30;64.48
61345;BME280;47216;42.656;23.232;2023-05-07T06:48:42;94137.56;;;15.39;64.05
61345;BME280;47216;42.656;23.232;2023-05-07T06:51:10;94135.97;;;15.38;63.73
61345;BME280;47216;42.656;23.232;2023-05-07T06:53:37;94135.94;;;15.43;63.30
61345;BME280;47216;42.656;23.232;2023-05-07T06:56:05;94138.47;;;15.69;62.74
61345;BME280;47216;42.656;23.232;2023-05-07T06:58:31;94136.78;;;15.88;61.89
61345;BME280;47216;42.656;23.232;2023-05-07T07:00:58;94134.13;;;15.93;61.77
61345;BME280;47216;42.656;23.232;2023-05-07T07:03:25;94140.47;;;15.87;62.24
61345;BME280;47216;42.656;23.232;2023-05-07T07:05:52;94141.22;;;15.93;61.65
61345;BME280;47216;42.656;23.232;2023-05-07T07:08:21;94136.97;;;16.02;61.22
61345;BME280;47216;42.656;23.232;2023-05-07T07:10:48;94137.66;;;16.18;59.46
61345;BME280;47216;42.656;23.232;2023-05-07T07:13:15;94136.97;;;16.02;60.77
61345;BME280;47216;42.656;23.232;2023-05-07T07:15:43;94128.28;;;16.02;61.14
61345;BME280;47216;42.656;23.232;2023-05-07T07:18:10;94134.84;;;16.04;60.83
61345;BME280;47216;42.656;23.232;2023-05-07T07:20:37;94134.03;;;16.38;59.93
61345;BME280;47216;42.656;23.232;2023-05-07T07:23:03;94127.25;;;16.61;59.59
61345;BME280;47216;42.656;23.232;2023-05-07T07:25:32;94129.25;;;16.74;59.66
61345;BME280;47216;42.656;23.232;2023-05-07T07:27:58;94121.50;;;16.88;59.57
61345;BME280;47216;42.656;23.232;2023-05-07T07:30:25;94119.56;;;16.99;60.12
61345;BME280;47216;42.656;23.232;2023-05-07T07:32:52;94129.44;;;17.12;59.67
61345;BME280;47216;42.656;23.232;2023-05-07T07:35:20;94129.31;;;17.22;58.30
61345;BME280;47216;42.656;23.232;2023-05-07T07:37:48;94126.50;;;17.38;57.29
61345;BME280;47216;42.656;23.232;2023-05-07T07:40:16;94129.13;;;17.38;56.58
61345;BME280;47216;42.656;23.232;2023-05-07T07:42:44;94131.34;;;17.50;56.47
61345;BME280;47216;42.656;23.232;2023-05-07T07:45:11;94131.56;;;17.53;56.32
61345;BME280;47216;42.656;23.232;2023-05-07T07:47:38;94135.84;;;17.68;55.48
61345;BME280;47216;42.656;23.232;2023-05-07T07:50:06;94142.34;;;17.76;55.87
61345;BME280;47216;42.656;23.232;2023-05-07T07:52:33;94138.19;;;17.70;55.28
61345;BME280;47216;42.656;23.232;2023-05-07T07:55:00;94138.44;;;17.92;55.30
61345;BME280;47216;42.656;23.232;2023-05-07T07:57:27;94137.16;;;18.09;55.67
61345;BME280;47216;42.656;23.232;2023-05-07T08:00:03;94135.09;;;18.05;54.00
61345;BME280;47216;42.656;23.232;2023-05-07T08:02:32;94125.63;;;17.85;54.54
61345;BME280;47216;42.656;23.232;2023-05-07T08:04:59;94135.81;;;17.92;55.37
61345;BME280;47216;42.656;23.232;2023-05-07T08:07:25;94133.97;;;18.12;55.80
61345;BME280;47216;42.656;23.232;2023-05-07T08:09:52;94127.59;;;18.13;54.39
61345;BME280;47216;42.656;23.232;2023-05-07T08:12:19;94132.88;;;18.13;54.55
61345;BME280;47216;42.656;23.232;2023-05-07T08:14:46;94125.16;;;18.35;53.84
61345;BME280;47216;42.656;23.232;2023-05-07T08:17:15;94124.31;;;18.54;54.08
61345;BME280;47216;42.656;23.232;2023-05-07T08:19:42;94123.16;;;18.74;54.20
61345;BME280;47216;42.656;23.232;2023-05-07T08:22:09;94129.09;;;18.84;53.17
61345;BME280;47216;42.656;23.232;2023-05-07T08:24:36;94125.38;;;18.99;50.59
61345;BME280;47216;42.656;23.232;2023-05-07T08:27:03;94119.00;;;18.86;52.40
61345;BME280;47216;42.656;23.232;2023-05-07T08:29:30;94117.75;;;18.84;52.58
61345;BME280;47216;42.656;23.232;2023-05-07T08:31:57;94106.00;;;19.04;51.33
61345;BME280;47216;42.656;23.232;2023-05-07T08:34:25;94114.22;;;19.16;52.96
61345;BME280;47216;42.656;23.232;2023-05-07T08:36:52;94099.13;;;19.30;50.87
61345;BME280;47216;42.656;23.232;2023-05-07T08:39:19;94108.31;;;19.47;51.24
61345;BME280;47216;42.656;23.232;2023-05-07T08:41:46;94111.72;;;19.61;49.99
61345;BME280;47216;42.656;23.232;2023-05-07T08:44:16;94103.81;;;19.47;48.90
61345;BME280;47216;42.656;23.232;2023-05-07T08:46:47;94109.91;;;19.48;50.47
61345;BME280;47216;42.656;23.232;2023-05-07T08:49:17;94110.44;;;19.59;50.35
61345;BME280;47216;42.656;23.232;2023-05-07T08:51:45;94110.53;;;19.67;50.26
61345;BME280;47216;42.656;23.232;2023-05-07T08:54:15;94101.34;;;19.79;49.89
61345;BME280;47216;42.656;23.232;2023-05-07T08:56:43;94104.84;;;19.88;49.80
61345;BME280;47216;42.656;23.232;2023-05-07T08:59:10;94106.53;;;20.06;48.24
61345;BME280;47216;42.656;23.232;2023-05-07T09:01:37;94105.84;;;20.01;48.12
61345;BME280;47216;42.656;23.232;2023-05-07T09:04:04;94093.88;;;20.03;48.42
61345;BME280;47216;42.656;23.232;2023-05-07T09:06:32;94094.63;;;20.18;48.48
61345;BME280;47216;42.656;23.232;2023-05-07T09:09:00;94099.06;;;20.31;49.12
61345;BME280;47216;42.656;23.232;2023-05-07T09:11:30;94093.66;;;20.36;48.59
61345;BME280;47216;42.656;23.232;2023-05-07T09:13:57;94084.44;;;20.56;47.08
61345;BME280;47216;42.656;23.232;2023-05-07T09:16:29;94087.47;;;20.72;44.87
61345;BME280;47216;42.656;23.232;2023-05-07T09:18:58;94086.41;;;20.73;44.29
61345;BME280;47216;42.656;23.232;2023-05-07T09:21:25;94084.25;;;20.52;45.65
61345;BME280;47216;42.656;23.232;2023-05-07T09:23:53;94085.00;;;20.53;45.80
61345;BME280;47216;42.656;23.232;2023-05-07T09:26:23;94080.00;;;20.74;48.50
61345;BME280;47216;42.656;23.232;2023-05-07T09:28:50;94083.81;;;20.90;49.68
61345;BME280;47216;42.656;23.232;2023-05-07T09:31:18;94062.44;;;20.87;47.73
61345;BME280;47216;42.656;23.232;2023-05-07T09:33:46;94084.44;;;20.87;45.70
61345;BME280;47216;42.656;23.232;2023-05-07T09:36:13;94070.19;;;20.74;45.29
61345;BME280;47216;42.656;23.232;2023-05-07T09:38:40;94077.22;;;20.79;45.77
61345;BME280;47216;42.656;23.232;2023-05-07T09:41:09;94075.56;;;20.92;46.19
61345;BME280;47216;42.656;23.232;2023-05-07T09:43:39;94078.84;;;20.89;44.99
61345;BME280;47216;42.656;23.232;2023-05-07T09:46:07;94078.94;;;20.84;44.53
61345;BME280;47216;42.656;23.232;2023-05-07T09:48:37;94079.28;;;20.82;43.44
61345;BME280;47216;42.656;23.232;2023-05-07T09:51:15;94073.16;;;20.73;42.89
61345;BME280;47216;42.656;23.232;2023-05-07T09:53:45;94072.44;;;20.59;43.19
61345;BME280;47216;42.656;23.232;2023-05-07T09:56:13;94074.94;;;20.32;43.33
61345;BME280;47216;42.656;23.232;2023-05-07T09:58:43;94068.97;;;20.27;43.21
61345;BME280;47216;42.656;23.232;2023-05-07T10:01:11;94068.72;;;20.14;42.33
61345;BME280;47216;42.656;23.232;2023-05-07T10:03:40;94073.44;;;20.18;42.67
61345;BME280;47216;42.656;23.232;2023-05-07T10:06:08;94070.25;;;20.29;43.23
61345;BME280;47216;42.656;23.232;2023-05-07T10:08:36;94063.84;;;20.30;43.06
61345;BME280;47216;42.656;23.232;2023-05-07T10:11:04;94067.66;;;20.38;43.58
61345;BME280;47216;42.656;23.232;2023-05-07T10:13:32;94065.22;;;20.50;41.69
61345;BME280;47216;42.656;23.232;2023-05-07T10:16:03;94051.31;;;20.45;41.72
61345;BME280;47216;42.656;23.232;2023-05-07T10:18:31;94059.28;;;20.53;42.37
61345;BME280;47216;42.656;23.232;2023-05-07T10:21:06;94052.81;;;20.60;43.00
61345;BME280;47216;42.656;23.232;2023-05-07T10:23:34;94052.63;;;20.56;41.79
61345;BME280;47216;42.656;23.232;2023-05-07T10:26:03;94047.88;;;20.67;42.13
61345;BME280;47216;42.656;23.232;2023-05-07T10:28:33;94043.56;;;20.88;40.75
61345;BME280;47216;42.656;23.232;2023-05-07T10:31:14;94029.91;;;21.04;41.64
61345;BME280;47216;42.656;23.232;2023-05-07T10:33:46;94034.91;;;21.14;41.34
61345;BME280;47216;42.656;23.232;2023-05-07T10:36:14;94020.59;;;21.32;39.75
61345;BME280;47216;42.656;23.232;2023-05-07T10:38:41;94023.75;;;21.43;40.34
61345;BME280;47216;42.656;23.232;2023-05-07T10:41:08;94022.50;;;21.58;41.18
61345;BME280;47216;42.656;23.232;2023-05-07T10:43:41;94024.69;;;21.73;41.38
61345;BME280;47216;42.656;23.232;2023-05-07T10:46:15;94017.50;;;21.82;41.05
61345;BME280;47216;42.656;23.232;2023-05-07T10:49:10;94019.38;;;21.91;40.33
61345;BME280;47216;42.656;23.232;2023-05-07T10:51:37;94013.75;;;22.01;38.59
61345;BME280;47216;42.656;23.232;2023-05-07T10:54:21;94007.78;;;22.04;40.41
61345;BME280;47216;42.656;23.232;2023-05-07T10:56:49;94007.81;;;22.21;40.13
61345;BME280;47216;42.656;23.232;2023-05-07T10:59:34;94003.56;;;22.29;39.73
61345;BME280;47216;42.656;23.232;2023-05-07T11:02:09;94015.09;;;22.42;39.13
61345;BME280;47216;42.656;23.232;2023-05-07T11:04:37;94008.56;;;22.31;38.16
61345;BME280;47216;42.656;23.232;2023-05-07T11:07:29;94003.06;;;22.36;38.77
61345;BME280;47216;42.656;23.232;2023-05-07T11:10:04;94012.16;;;22.35;38.46
61345;BME280;47216;42.656;23.232;2023-05-07T11:12:53;94011.78;;;22.45;38.99
61345;BME280;47216;42.656;23.232;2023-05-07T11:15:40;94008.19;;;22.50;39.56
61345;BME280;47216;42.656;23.232;2023-05-07T11:18:11;94013.03;;;22.48;39.40
61345;BME280;47216;42.656;23.232;2023-05-07T11:20:55;94007.53;;;22.53;37.86
61345;BME280;47216;42.656;23.232;2023-05-07T11:23:56;94001.09;;;22.62;38.11
61345;BME280;47216;42.656;23.232;2023-05-07T11:26:28;93990.38;;;22.80;38.15
61345;BME280;47216;42.656;23.232;2023-05-07T11:28:56;93993.78;;;22.89;38.13
61345;BME280;47216;42.656;23.232;2023-05-07T11:31:26;93980.00;;;22.87;37.04
61345;BME280;47216;42.656;23.232;2023-05-07T11:33:57;93981.59;;;22.88;38.44
61345;BME280;47216;42.656;23.232;2023-05-07T11:36:24;93979.97;;;22.96;38.19
61345;BME280;47216;42.656;23.232;2023-05-07T11:38:52;93990.78;;;22.99;38.81
61345;BME280;47216;42.656;23.232;2023-05-07T11:41:19;93995.72;;;23.10;37.51
61345;BME280;47216;42.656;23.232;2023-05-07T11:43:58;93991.13;;;22.89;37.84
61345;BME280;47216;42.656;23.232;2023-05-07T11:46:27;93980.28;;;22.94;36.30
61345;BME280;47216;42.656;23.232;2023-05-07T11:48:56;93968.56;;;23.04;36.16
61345;BME280;47216;42.656;23.232;2023-05-07T11:51:25;93990.88;;;23.12;35.88
61345;BME280;47216;42.656;23.232;2023-05-07T11:53:53;93988.16;;;23.20;35.38
61345;BME280;47216;42.656;23.232;2023-05-07T11:56:20;93974.00;;;23.07;35.80
61345;BME280;47216;42.656;23.232;2023-05-07T11:58:49;93979.72;;;23.18;36.81
61345;BME280;47216;42.656;23.232;2023-05-07T12:01:17;93977.63;;;23.24;37.21
61345;BME280;47216;42.656;23.232;2023-05-07T12:03:45;93980.19;;;23.41;37.02
61345;BME280;47216;42.656;23.232;2023-05-07T12:06:15;93975.81;;;23.58;36.23
61345;BME280;47216;42.656;23.232;2023-05-07T12:08:43;93963.44;;;23.62;36.89
61345;BME280;47216;42.656;23.232;2023-05-07T12:11:15;93968.53;;;23.67;36.35
61345;BME280;47216;42.656;23.232;2023-05-07T12:13:43;93964.25;;;23.54;36.19
61345;BME280;47216;42.656;23.232;2023-05-07T12:16:11;93970.75;;;23.65;37.43
61345;BME280;47216;42.656;23.232;2023-05-07T12:18:38;93951.91;;;23.70;36.99
61345;BME280;47216;42.656;23.232;2023-05-07T12:21:06;93960.84;;;23.74;35.49
61345;BME280;47216;42.656;23.232;2023-05-07T12:23:35;93955.75;;;23.81;35.37
61345;BME280;47216;42.656;23.232;2023-05-07T12:26:03;93952.41;;;23.84;35.93
61345;BME280;47216;42.656;23.232;2023-05-07T12:28:31;93945.81;;;24.03;35.38
61345;BME280;47216;42.656;23.232;2023-05-07T12:31:02;93951.84;;;24.12;36.05
61345;BME280;47216;42.656;23.232;2023-05-07T12:33:29;93939.19;;;24.21;35.54
61345;BME280;47216;42.656;23.232;2023-05-07T12:36:00;93937.78;;;24.36;34.91
61345;BME280;47216;42.656;23.232;2023-05-07T12:38:36;93941.06;;;24.54;34.19
61345;BME280;47216;42.656;23.232;2023-05-07T12:41:04;93935.44;;;24.22;32.71
61345;BME280;47216;42.656;23.232;2023-05-07T12:43:31;93938.03;;;23.98;33.74
61345;BME280;47216;42.656;23.232;2023-05-07T12:46:00;93930.50;;;24.00;34.69
61345;BME280;47216;42.656;23.232;2023-05-07T12:48:28;93930.03;;;23.98;35.02
61345;BME280;47216;42.656;23.232;2023-05-07T12:50:55;93934.13;;;23.83;33.83
61345;BME280;47216;42.656;23.232;2023-05-07T12:53:25;93925.16;;;23.87;34.81
61345;BME280;47216;42.656;23.232;2023-05-07T12:55:55;93909.19;;;24.00;34.39
61345;BME280;47216;42.656;23.232;2023-05-07T12:58:25;93907.44;;;24.16;34.22